Aérodrome :
LOGIN :

S'inscrire | Disclaimer

   EN    FR    IT 

 










Légende :    VFR   VFR Marginal   IFR   IFR Intensif   IFR Très Intensif
Visi : 
Plafond : 
>= 8 km
>= 3000ft
5 à 8 km
1000 à 3000 ft
1500m à 5 km
500 à 1000 ft
800 à 1500m
200 à 500 ft
< 800m
< 200 ft
Symboles :   Orages  Brouillard  Fortes neiges  Fortes précipitations  Vent > 20 kt
SIGMETs :   Divers  Orages  Givrage  Turbulence  Onde Orograph.  Cendres Volcan.







- Altitude de l'aérodrome : 2945 ft
- Code IATA : RGS


LEBG - Burgos

DERNIER METAR :
  • 161800Z 00000KT 4000 -SHRA FEW005 SCT034TCU 10/10 Q1019

METARs EXPIRÉS :
  • 161730Z 06005KT 7000 FEW005 SCT038 10/09 Q1019
  • 161700Z 04005KT 6000 FEW005 FEW040TCU SCT045 10/10 Q1019 RESHRA
  • 161630Z 07004KT 030V150 2500 +SHRA FEW005 BKN035TCU 11/10 Q1019
  • 161600Z 04007KT 9999 FEW005 FEW030TCU BKN044 11/10 Q1019
  • 161530Z 04009KT 9999 FEW005 FEW030TCU SCT036 11/10 Q1019

TAF TAF LEBG
Valide du 16 à 18h jusqu'au 17 à 03h UTC


161700Z 1618/1703 04005KT 9999 SCT035
PROB30
TEMPO 1618/1620 SHRA FEW022TCU
Pas de NOTAMs connus pour ce terrain.



MET'MAP, la Météo Aéronautique d'un coup d'oeil ! - Copyright ORBIFLY Décembre 2007 - Disclaimer

ORBIFLY MET'MAP TEAM :

Programmation & Développement : Alexandra Zaïnal
Conception & Développement : Baudouin d'Aumeries
Co-Programmation & Développement : Marc-Olivier Méhu
Soutien technique & logistique : Manuel Goepfert

Contact : metmap@orbifly.com




SOURCES & CREDITS :

   NOAA